Terminal Aerodrome Forecast
Issued by NWS Blacksburg, VA

Home | Current Version | Previous Version | Text Only | Print | Product List | Glossary On
Versions: 1 2 3 4 5 6 7 8 9 10 11 12 13 14 15 16 17 18 19 20 21 22 23 24 25 26 27 28 29 30 31 32 33 34 35 36 37
000
FTUS41 KRNK 172320
TAFBLF
TAF
KBLF 172320Z 1800/1824 15005KT P6SM SCT035 BKN060
     FM180400 00000KT 6SM BR BKN035
     FM180700 00000KT 2SM BR SCT002 BKN025
      TEMPO 1810/1812 1/2SM FG BKN002
     FM181400 00000KT 5SM BR SCT012 BKN025
     FM181600 VRB03KT P6SM BKN040=

USA.gov is the U.S. government's official web portal to all federal, state and local government web resources and services.